Matagorda, Texas
Current Conditions -  °F | °C
As of 3:53 PM on Monday 20 Oct 2014 (Local Time) from KPSX Reporting Station
Scattered Clouds Scattered Clouds  
Wind Chill: 29°   Ceiling: Unl
Heat Index: 30°   Visibility: 10mi
Dew Point: 18°   Wind: 10mph
Humidity: 51%   Direction: 80°E
Pressure: 29.96"   Gusts: NA
Location:  28.69°N, 95.97°W
Report Text: KPSX 202053Z AUTO 08009KT 10SM FEW045 SCT060 SCT085 29/18 A2996 RMK AO2 SLP144 T02940183 56019
Loading
Personal Weather Stations






























Interactive Weather Map
Tropical Storm Tracking
New forecast layout! Learn more

10-Day Weather Forecast

Advertisements
Track Severe Weather on mobile